Overview Statistics Trail Chart Weather Telemetry Raw packets
 

This is the latest recevied weather packets stored in our database for station/object K5SVV. If no packets are shown the sender has not sent any weather packets the latest 10 day(s).

<< 79 80 81 82 83 84 85 >>
Time Temp. Humidity Pressure Rain* Wind** Luminosity Snow
1788116793 36.67° C 37% 1014.9 hPa 0 mm - 737 W/m² -
1788116488 36.11° C 38% 1014.7 hPa 0 mm - 741 W/m² -
1788116186 37.22° C 37% 1015 hPa 0 mm - 737 W/m² -
1788115883 36.67° C 38% 1015 hPa 0 mm - 726 W/m² -
1788115581 36.11° C 39% 1014.9 hPa 0 mm - 731 W/m² -
1788115276 35.56° C 40% 1015 hPa 0 mm - 747 W/m² -
1788114971 35.56° C 41% 1015.1 hPa 0 mm - 141 W/m² -
1788114667 36.11° C 39% 1015.3 hPa 0 mm - 716 W/m² -
1788114361 36.11° C 41% 1015.3 hPa 0 mm - 751 W/m² -
1788114052 36.11° C 42% 1015.2 hPa 0 mm - 762 W/m² -
1788113749 35.56° C 41% 1015.3 hPa 0 mm - 758 W/m² -
1788113448 36.11° C 41% 1015.6 hPa 0 mm - 760 W/m² -
1788113147 35.56° C 40% 1015.5 hPa 0 mm - 741 W/m² -
1788112847 35.56° C 42% 1015.6 hPa 0 mm - 742 W/m² -
1788112545 35.56° C 42% 1015.9 hPa 0 mm - 757 W/m² -
1788112241 35.56° C 41% 1015.9 hPa 0 mm - 741 W/m² -
1788111937 35° C 42% 1015.8 hPa 0 mm - 741 W/m² -
1788111631 35.56° C 42% 1016 hPa 0 mm - 741 W/m² -
1788111327 35° C 42% 1016.1 hPa 0 mm - 760 W/m² -
1788111022 35° C 42% 1016.2 hPa 0 mm - 757 W/m² -
1788110719 35° C 42% 1016.3 hPa 0 mm - 770 W/m² -
1788110415 34.44° C 44% 1016.1 hPa 0 mm - 745 W/m² -
1788110121 35° C 44% 1016.4 hPa 0 mm - 737 W/m² -
1788109809 35° C 43% 1016.2 hPa 0 mm - 738 W/m² -
1788109504 35° C 43% 1016.4 hPa 0 mm - 752 W/m² -

* Rain latest hour (hover to see other rain measurements)
** Current wind speed in m/s (hover to see current wind gust speed)